sensor_id;sensor_type;location;lat;lon;timestamp;P1;durP1;ratioP1;P2;durP2;ratioP2
36653;SDS011;22650;49.350;20.898;2023-08-07T00:01:14;990.58;;;367.98;;
36653;SDS011;22650;49.350;20.898;2023-08-07T00:03:48;932.83;;;383.67;;
36653;SDS011;22650;49.350;20.898;2023-08-07T00:06:23;786.83;;;302.08;;
36653;SDS011;22650;49.350;20.898;2023-08-07T00:08:56;1091.47;;;481.05;;
36653;SDS011;22650;49.350;20.898;2023-08-07T00:11:30;770.13;;;299.52;;
36653;SDS011;22650;49.350;20.898;2023-08-07T00:14:03;1288.07;;;527.38;;
36653;SDS011;22650;49.350;20.898;2023-08-07T00:16:37;899.40;;;398.05;;
36653;SDS011;22650;49.350;20.898;2023-08-07T00:19:10;1218.90;;;520.55;;
36653;SDS011;22650;49.350;20.898;2023-08-07T00:21:46;1180.38;;;459.10;;
36653;SDS011;22650;49.350;20.898;2023-08-07T00:24:19;901.60;;;334.17;;
36653;SDS011;22650;49.350;20.898;2023-08-07T00:26:53;799.17;;;332.40;;
36653;SDS011;22650;49.350;20.898;2023-08-07T00:29:27;1078.25;;;418.10;;
36653;SDS011;22650;49.350;20.898;2023-08-07T00:32:01;902.60;;;369.20;;
36653;SDS011;22650;49.350;20.898;2023-08-07T00:34:35;970.72;;;408.08;;
36653;SDS011;22650;49.350;20.898;2023-08-07T00:37:10;760.55;;;294.73;;
36653;SDS011;22650;49.350;20.898;2023-08-07T00:39:43;728.13;;;299.95;;
36653;SDS011;22650;49.350;20.898;2023-08-07T00:42:17;824.70;;;324.67;;
36653;SDS011;22650;49.350;20.898;2023-08-07T00:44:51;855.70;;;358.95;;
36653;SDS011;22650;49.350;20.898;2023-08-07T00:47:24;832.90;;;347.75;;
36653;SDS011;22650;49.350;20.898;2023-08-07T00:50:00;858.63;;;361.65;;
36653;SDS011;22650;49.350;20.898;2023-08-07T00:52:38;945.00;;;390.15;;
36653;SDS011;22650;49.350;20.898;2023-08-07T00:55:11;908.22;;;366.80;;
36653;SDS011;22650;49.350;20.898;2023-08-07T00:57:45;761.33;;;315.73;;
36653;SDS011;22650;49.350;20.898;2023-08-07T01:00:19;1056.93;;;423.23;;
36653;SDS011;22650;49.350;20.898;2023-08-07T01:02:53;958.10;;;394.23;;
36653;SDS011;22650;49.350;20.898;2023-08-07T01:05:29;729.45;;;326.95;;
36653;SDS011;22650;49.350;20.898;2023-08-07T01:08:04;790.60;;;295.00;;
36653;SDS011;22650;49.350;20.898;2023-08-07T01:10:40;655.92;;;244.18;;
36653;SDS011;22650;49.350;20.898;2023-08-07T01:13:23;655.95;;;260.00;;
36653;SDS011;22650;49.350;20.898;2023-08-07T01:16:03;552.97;;;217.00;;
36653;SDS011;22650;49.350;20.898;2023-08-07T01:18:42;651.67;;;269.20;;
36653;SDS011;22650;49.350;20.898;2023-08-07T01:21:17;466.85;;;182.27;;
36653;SDS011;22650;49.350;20.898;2023-08-07T01:23:53;580.65;;;260.92;;
36653;SDS011;22650;49.350;20.898;2023-08-07T01:26:26;465.83;;;194.13;;
36653;SDS011;22650;49.350;20.898;2023-08-07T01:29:02;425.17;;;140.60;;
36653;SDS011;22650;49.350;20.898;2023-08-07T01:31:55;410.15;;;160.40;;
36653;SDS011;22650;49.350;20.898;2023-08-07T01:34:30;507.05;;;205.43;;
36653;SDS011;22650;49.350;20.898;2023-08-07T01:37:05;341.27;;;138.60;;
36653;SDS011;22650;49.350;20.898;2023-08-07T01:39:43;524.05;;;186.95;;
36653;SDS011;22650;49.350;20.898;2023-08-07T01:42:19;481.55;;;185.25;;
36653;SDS011;22650;49.350;20.898;2023-08-07T01:44:52;530.53;;;205.07;;
36653;SDS011;22650;49.350;20.898;2023-08-07T01:47:26;564.67;;;219.30;;
36653;SDS011;22650;49.350;20.898;2023-08-07T01:49:59;463.25;;;168.68;;
36653;SDS011;22650;49.350;20.898;2023-08-07T01:52:34;415.05;;;170.35;;
36653;SDS011;22650;49.350;20.898;2023-08-07T01:55:09;458.27;;;172.75;;
36653;SDS011;22650;49.350;20.898;2023-08-07T01:57:43;457.15;;;167.30;;
36653;SDS011;22650;49.350;20.898;2023-08-07T02:00:16;458.95;;;192.38;;
36653;SDS011;22650;49.350;20.898;2023-08-07T02:02:50;553.13;;;218.88;;
36653;SDS011;22650;49.350;20.898;2023-08-07T02:05:24;351.13;;;156.02;;
36653;SDS011;22650;49.350;20.898;2023-08-07T02:07:58;471.35;;;185.48;;
36653;SDS011;22650;49.350;20.898;2023-08-07T02:10:33;414.70;;;174.43;;
36653;SDS011;22650;49.350;20.898;2023-08-07T02:13:07;551.97;;;209.05;;
36653;SDS011;22650;49.350;20.898;2023-08-07T02:15:41;400.42;;;167.40;;
36653;SDS011;22650;49.350;20.898;2023-08-07T02:18:15;526.80;;;210.10;;
36653;SDS011;22650;49.350;20.898;2023-08-07T02:20:48;556.10;;;215.60;;
36653;SDS011;22650;49.350;20.898;2023-08-07T02:23:22;472.38;;;193.13;;
36653;SDS011;22650;49.350;20.898;2023-08-07T02:25:57;462.95;;;178.50;;
36653;SDS011;22650;49.350;20.898;2023-08-07T02:28:30;486.05;;;188.68;;
36653;SDS011;22650;49.350;20.898;2023-08-07T02:31:05;542.20;;;233.73;;
36653;SDS011;22650;49.350;20.898;2023-08-07T02:33:39;534.38;;;223.35;;
36653;SDS011;22650;49.350;20.898;2023-08-07T02:36:13;637.20;;;268.83;;
36653;SDS011;22650;49.350;20.898;2023-08-07T02:38:46;514.75;;;196.07;;
36653;SDS011;22650;49.350;20.898;2023-08-07T02:41:21;435.38;;;167.00;;
36653;SDS011;22650;49.350;20.898;2023-08-07T02:43:55;445.92;;;172.23;;
36653;SDS011;22650;49.350;20.898;2023-08-07T02:46:28;414.70;;;158.10;;
36653;SDS011;22650;49.350;20.898;2023-08-07T02:49:02;393.52;;;159.10;;
36653;SDS011;22650;49.350;20.898;2023-08-07T02:51:36;475.88;;;176.93;;
36653;SDS011;22650;49.350;20.898;2023-08-07T02:54:10;426.35;;;157.68;;
36653;SDS011;22650;49.350;20.898;2023-08-07T02:56:45;448.63;;;160.07;;
36653;SDS011;22650;49.350;20.898;2023-08-07T02:59:20;395.67;;;136.75;;
36653;SDS011;22650;49.350;20.898;2023-08-07T03:01:54;500.67;;;190.25;;
36653;SDS011;22650;49.350;20.898;2023-08-07T03:04:27;389.13;;;165.95;;
36653;SDS011;22650;49.350;20.898;2023-08-07T03:07:01;465.83;;;181.80;;
36653;SDS011;22650;49.350;20.898;2023-08-07T03:09:35;462.92;;;171.05;;
36653;SDS011;22650;49.350;20.898;2023-08-07T03:12:10;449.85;;;174.20;;
36653;SDS011;22650;49.350;20.898;2023-08-07T03:14:44;439.20;;;170.18;;
36653;SDS011;22650;49.350;20.898;2023-08-07T03:17:17;405.92;;;168.35;;
36653;SDS011;22650;49.350;20.898;2023-08-07T03:19:52;367.20;;;160.93;;
36653;SDS011;22650;49.350;20.898;2023-08-07T03:22:26;478.23;;;200.27;;
36653;SDS011;22650;49.350;20.898;2023-08-07T03:24:59;458.27;;;187.38;;
36653;SDS011;22650;49.350;20.898;2023-08-07T03:27:35;459.35;;;176.25;;
36653;SDS011;22650;49.350;20.898;2023-08-07T03:30:09;511.38;;;206.05;;
36653;SDS011;22650;49.350;20.898;2023-08-07T03:32:44;336.92;;;141.80;;
36653;SDS011;22650;49.350;20.898;2023-08-07T03:35:18;382.90;;;143.15;;
36653;SDS011;22650;49.350;20.898;2023-08-07T03:37:52;325.92;;;120.55;;
36653;SDS011;22650;49.350;20.898;2023-08-07T03:40:25;392.92;;;136.38;;
36653;SDS011;22650;49.350;20.898;2023-08-07T03:43:00;315.65;;;117.97;;
36653;SDS011;22650;49.350;20.898;2023-08-07T03:45:34;239.10;;;104.65;;
36653;SDS011;22650;49.350;20.898;2023-08-07T03:48:08;285.77;;;106.28;;
36653;SDS011;22650;49.350;20.898;2023-08-07T03:50:42;255.52;;;98.10;;
36653;SDS011;22650;49.350;20.898;2023-08-07T03:53:16;261.45;;;108.03;;
36653;SDS011;22650;49.350;20.898;2023-08-07T03:55:52;286.77;;;110.57;;
36653;SDS011;22650;49.350;20.898;2023-08-07T03:58:28;288.95;;;120.55;;
36653;SDS011;22650;49.350;20.898;2023-08-07T04:01:02;232.02;;;109.32;;
36653;SDS011;22650;49.350;20.898;2023-08-07T04:03:36;316.23;;;116.30;;
36653;SDS011;22650;49.350;20.898;2023-08-07T04:06:10;294.40;;;112.88;;
36653;SDS011;22650;49.350;20.898;2023-08-07T04:08:47;268.58;;;113.55;;
36653;SDS011;22650;49.350;20.898;2023-08-07T04:11:21;260.20;;;92.75;;
36653;SDS011;22650;49.350;20.898;2023-08-07T04:13:56;293.92;;;102.90;;
36653;SDS011;22650;49.350;20.898;2023-08-07T04:16:30;267.85;;;127.97;;
36653;SDS011;22650;49.350;20.898;2023-08-07T04:19:04;318.20;;;110.35;;
36653;SDS011;22650;49.350;20.898;2023-08-07T04:21:38;291.17;;;108.97;;
36653;SDS011;22650;49.350;20.898;2023-08-07T04:24:13;304.60;;;126.97;;
36653;SDS011;22650;49.350;20.898;2023-08-07T04:26:48;359.40;;;142.07;;
36653;SDS011;22650;49.350;20.898;2023-08-07T04:29:23;324.50;;;114.50;;
36653;SDS011;22650;49.350;20.898;2023-08-07T04:31:57;454.52;;;179.85;;
36653;SDS011;22650;49.350;20.898;2023-08-07T04:34:30;484.73;;;206.27;;
36653;SDS011;22650;49.350;20.898;2023-08-07T04:37:04;315.67;;;120.85;;
36653;SDS011;22650;49.350;20.898;2023-08-07T04:39:38;310.98;;;118.60;;
36653;SDS011;22650;49.350;20.898;2023-08-07T04:42:12;372.80;;;121.78;;
36653;SDS011;22650;49.350;20.898;2023-08-07T04:44:47;391.90;;;142.73;;
36653;SDS011;22650;49.350;20.898;2023-08-07T04:47:20;440.95;;;186.50;;
36653;SDS011;22650;49.350;20.898;2023-08-07T04:49:54;360.50;;;155.82;;
36653;SDS011;22650;49.350;20.898;2023-08-07T04:52:28;420.00;;;150.80;;
36653;SDS011;22650;49.350;20.898;2023-08-07T04:55:01;398.45;;;154.43;;
36653;SDS011;22650;49.350;20.898;2023-08-07T04:57:35;412.27;;;153.43;;
36653;SDS011;22650;49.350;20.898;2023-08-07T05:00:11;633.72;;;255.43;;
36653;SDS011;22650;49.350;20.898;2023-08-07T05:02:45;432.13;;;165.18;;
36653;SDS011;22650;49.350;20.898;2023-08-07T05:05:20;495.15;;;209.38;;
36653;SDS011;22650;49.350;20.898;2023-08-07T05:07:54;525.05;;;227.57;;
36653;SDS011;22650;49.350;20.898;2023-08-07T05:10:27;586.15;;;237.98;;
36653;SDS011;22650;49.350;20.898;2023-08-07T05:13:01;453.02;;;194.10;;
36653;SDS011;22650;49.350;20.898;2023-08-07T05:15:36;518.55;;;199.35;;
36653;SDS011;22650;49.350;20.898;2023-08-07T05:18:09;718.80;;;262.17;;
36653;SDS011;22650;49.350;20.898;2023-08-07T05:20:43;938.30;;;390.42;;
36653;SDS011;22650;49.350;20.898;2023-08-07T05:23:17;919.63;;;385.73;;
36653;SDS011;22650;49.350;20.898;2023-08-07T05:25:51;1100.72;;;442.63;;
36653;SDS011;22650;49.350;20.898;2023-08-07T05:28:25;665.95;;;261.45;;
36653;SDS011;22650;49.350;20.898;2023-08-07T05:31:00;765.83;;;319.40;;
36653;SDS011;22650;49.350;20.898;2023-08-07T05:33:33;635.88;;;230.65;;
36653;SDS011;22650;49.350;20.898;2023-08-07T05:36:07;764.00;;;318.15;;
36653;SDS011;22650;49.350;20.898;2023-08-07T05:38:40;590.17;;;240.20;;
36653;SDS011;22650;49.350;20.898;2023-08-07T05:41:14;578.30;;;240.52;;
36653;SDS011;22650;49.350;20.898;2023-08-07T05:43:48;694.28;;;260.73;;
36653;SDS011;22650;49.350;20.898;2023-08-07T05:46:23;594.55;;;252.88;;
36653;SDS011;22650;49.350;20.898;2023-08-07T05:48:56;557.85;;;232.45;;
36653;SDS011;22650;49.350;20.898;2023-08-07T05:51:30;827.40;;;384.38;;
36653;SDS011;22650;49.350;20.898;2023-08-07T05:54:04;551.47;;;211.25;;
36653;SDS011;22650;49.350;20.898;2023-08-07T05:56:37;596.05;;;228.90;;
36653;SDS011;22650;49.350;20.898;2023-08-07T05:59:11;832.05;;;340.13;;
36653;SDS011;22650;49.350;20.898;2023-08-07T06:01:46;608.47;;;218.27;;
36653;SDS011;22650;49.350;20.898;2023-08-07T06:04:38;888.70;;;355.05;;
36653;SDS011;22650;49.350;20.898;2023-08-07T06:07:12;629.08;;;263.20;;
36653;SDS011;22650;49.350;20.898;2023-08-07T06:09:46;401.00;;;152.95;;
36653;SDS011;22650;49.350;20.898;2023-08-07T06:12:20;608.53;;;250.60;;
36653;SDS011;22650;49.350;20.898;2023-08-07T06:14:53;486.70;;;180.02;;
36653;SDS011;22650;49.350;20.898;2023-08-07T06:17:28;414.88;;;158.85;;
36653;SDS011;22650;49.350;20.898;2023-08-07T06:20:02;827.33;;;351.60;;
36653;SDS011;22650;49.350;20.898;2023-08-07T06:22:37;600.63;;;242.68;;
36653;SDS011;22650;49.350;20.898;2023-08-07T06:25:10;753.55;;;288.20;;
36653;SDS011;22650;49.350;20.898;2023-08-07T06:27:44;616.95;;;236.32;;
36653;SDS011;22650;49.350;20.898;2023-08-07T06:30:18;649.15;;;262.70;;
36653;SDS011;22650;49.350;20.898;2023-08-07T06:32:53;967.03;;;379.25;;
36653;SDS011;22650;49.350;20.898;2023-08-07T06:35:26;1371.30;;;551.45;;
36653;SDS011;22650;49.350;20.898;2023-08-07T06:38:00;1121.30;;;426.75;;
36653;SDS011;22650;49.350;20.898;2023-08-07T06:40:34;1993.53;;;789.75;;
36653;SDS011;22650;49.350;20.898;2023-08-07T06:43:08;1719.55;;;679.80;;
36653;SDS011;22650;49.350;20.898;2023-08-07T06:45:41;1777.50;;;694.60;;
36653;SDS011;22650;49.350;20.898;2023-08-07T06:48:17;1559.05;;;626.47;;
36653;SDS011;22650;49.350;20.898;2023-08-07T06:50:50;1991.97;;;781.58;;
36653;SDS011;22650;49.350;20.898;2023-08-07T06:53:24;1857.20;;;715.83;;
36653;SDS011;22650;49.350;20.898;2023-08-07T06:55:58;1644.00;;;614.38;;
36653;SDS011;22650;49.350;20.898;2023-08-07T06:58:31;1999.90;;;999.83;;
36653;SDS011;22650;49.350;20.898;2023-08-07T07:01:05;1999.90;;;863.20;;
36653;SDS011;22650;49.350;20.898;2023-08-07T07:03:40;1999.90;;;999.90;;
36653;SDS011;22650;49.350;20.898;2023-08-07T07:06:14;1999.90;;;848.83;;
36653;SDS011;22650;49.350;20.898;2023-08-07T07:08:47;1240.75;;;507.02;;
36653;SDS011;22650;49.350;20.898;2023-08-07T07:11:21;1999.90;;;999.90;;
36653;SDS011;22650;49.350;20.898;2023-08-07T07:13:56;1999.90;;;999.90;;
36653;SDS011;22650;49.350;20.898;2023-08-07T07:16:29;1951.28;;;747.88;;
36653;SDS011;22650;49.350;20.898;2023-08-07T07:19:04;1999.90;;;992.70;;
36653;SDS011;22650;49.350;20.898;2023-08-07T07:21:40;1999.90;;;999.90;;
36653;SDS011;22650;49.350;20.898;2023-08-07T07:24:13;1999.90;;;999.90;;
36653;SDS011;22650;49.350;20.898;2023-08-07T07:26:47;1999.90;;;999.90;;
36653;SDS011;22650;49.350;20.898;2023-08-07T07:29:21;1999.90;;;999.90;;
36653;SDS011;22650;49.350;20.898;2023-08-07T07:31:54;1999.90;;;995.40;;
36653;SDS011;22650;49.350;20.898;2023-08-07T07:34:30;1999.90;;;999.90;;
36653;SDS011;22650;49.350;20.898;2023-08-07T07:37:05;1999.90;;;999.90;;
36653;SDS011;22650;49.350;20.898;2023-08-07T07:39:38;1999.90;;;999.90;;
36653;SDS011;22650;49.350;20.898;2023-08-07T07:42:12;1999.90;;;999.90;;
36653;SDS011;22650;49.350;20.898;2023-08-07T07:44:45;1999.90;;;999.90;;
36653;SDS011;22650;49.350;20.898;2023-08-07T07:47:19;1999.90;;;999.90;;
36653;SDS011;22650;49.350;20.898;2023-08-07T07:50:05;1999.90;;;999.90;;
36653;SDS011;22650;49.350;20.898;2023-08-07T07:52:40;1999.90;;;999.90;;
36653;SDS011;22650;49.350;20.898;2023-08-07T07:55:14;1999.90;;;999.90;;
36653;SDS011;22650;49.350;20.898;2023-08-07T07:57:48;1999.90;;;999.90;;
36653;SDS011;22650;49.350;20.898;2023-08-07T08:00:22;1999.90;;;999.90;;
36653;SDS011;22650;49.350;20.898;2023-08-07T08:02:58;1999.90;;;999.90;;
36653;SDS011;22650;49.350;20.898;2023-08-07T08:05:33;1999.90;;;999.90;;
36653;SDS011;22650;49.350;20.898;2023-08-07T08:08:07;1999.90;;;999.90;;
36653;SDS011;22650;49.350;20.898;2023-08-07T08:10:41;1999.90;;;999.90;;
36653;SDS011;22650;49.350;20.898;2023-08-07T08:13:15;1999.90;;;999.90;;
36653;SDS011;22650;49.350;20.898;2023-08-07T08:15:48;1999.90;;;999.90;;
36653;SDS011;22650;49.350;20.898;2023-08-07T08:18:22;1999.90;;;999.90;;
36653;SDS011;22650;49.350;20.898;2023-08-07T08:20:57;1999.90;;;999.90;;
36653;SDS011;22650;49.350;20.898;2023-08-07T08:23:30;1999.90;;;906.30;;
36653;SDS011;22650;49.350;20.898;2023-08-07T08:26:04;1999.90;;;999.90;;
36653;SDS011;22650;49.350;20.898;2023-08-07T08:28:38;1999.90;;;883.55;;
36653;SDS011;22650;49.350;20.898;2023-08-07T08:31:11;1999.90;;;449.38;;
36653;SDS011;22650;49.350;20.898;2023-08-07T08:33:45;1999.90;;;999.90;;
36653;SDS011;22650;49.350;20.898;2023-08-07T08:36:20;1999.90;;;999.90;;
36653;SDS011;22650;49.350;20.898;2023-08-07T08:38:54;1999.90;;;650.65;;
36653;SDS011;22650;49.350;20.898;2023-08-07T08:41:28;1999.90;;;999.90;;
36653;SDS011;22650;49.350;20.898;2023-08-07T08:44:02;1999.90;;;999.90;;
36653;SDS011;22650;49.350;20.898;2023-08-07T08:46:38;1999.90;;;999.90;;
36653;SDS011;22650;49.350;20.898;2023-08-07T08:49:13;1999.90;;;999.90;;
36653;SDS011;22650;49.350;20.898;2023-08-07T08:51:50;1999.90;;;999.90;;
36653;SDS011;22650;49.350;20.898;2023-08-07T08:54:25;1786.70;;;767.13;;
36653;SDS011;22650;49.350;20.898;2023-08-07T08:56:59;1999.90;;;999.90;;
36653;SDS011;22650;49.350;20.898;2023-08-07T08:59:33;1999.90;;;999.90;;
36653;SDS011;22650;49.350;20.898;2023-08-07T09:02:07;1999.90;;;999.90;;
36653;SDS011;22650;49.350;20.898;2023-08-07T09:04:42;1999.90;;;999.90;;
36653;SDS011;22650;49.350;20.898;2023-08-07T09:07:17;1999.90;;;999.90;;
36653;SDS011;22650;49.350;20.898;2023-08-07T09:09:53;1999.90;;;999.90;;
36653;SDS011;22650;49.350;20.898;2023-08-07T09:12:29;1999.90;;;999.90;;
36653;SDS011;22650;49.350;20.898;2023-08-07T09:15:05;1999.90;;;999.90;;
36653;SDS011;22650;49.350;20.898;2023-08-07T09:17:42;1999.90;;;999.90;;
36653;SDS011;22650;49.350;20.898;2023-08-07T09:20:18;1999.90;;;999.90;;
36653;SDS011;22650;49.350;20.898;2023-08-07T09:22:53;1999.90;;;999.90;;
36653;SDS011;22650;49.350;20.898;2023-08-07T09:25:27;1999.90;;;999.90;;
36653;SDS011;22650;49.350;20.898;2023-08-07T09:28:01;1999.90;;;999.90;;
36653;SDS011;22650;49.350;20.898;2023-08-07T09:30:36;1999.90;;;999.90;;
36653;SDS011;22650;49.350;20.898;2023-08-07T09:33:10;1999.90;;;999.90;;
36653;SDS011;22650;49.350;20.898;2023-08-07T09:35:44;1999.90;;;999.90;;
36653;SDS011;22650;49.350;20.898;2023-08-07T09:38:19;1999.90;;;999.90;;
36653;SDS011;22650;49.350;20.898;2023-08-07T09:40:57;1999.90;;;999.90;;
36653;SDS011;22650;49.350;20.898;2023-08-07T09:43:33;1999.90;;;999.90;;
36653;SDS011;22650;49.350;20.898;2023-08-07T09:46:07;1999.90;;;999.90;;
36653;SDS011;22650;49.350;20.898;2023-08-07T09:48:44;1999.90;;;999.90;;
36653;SDS011;22650;49.350;20.898;2023-08-07T09:51:20;1999.90;;;999.90;;
36653;SDS011;22650;49.350;20.898;2023-08-07T09:53:55;1999.90;;;999.90;;
36653;SDS011;22650;49.350;20.898;2023-08-07T09:56:31;1999.90;;;999.90;;
36653;SDS011;22650;49.350;20.898;2023-08-07T09:59:04;1999.90;;;999.90;;
36653;SDS011;22650;49.350;20.898;2023-08-07T10:01:38;1999.90;;;665.72;;
36653;SDS011;22650;49.350;20.898;2023-08-07T10:04:16;1999.90;;;813.65;;
36653;SDS011;22650;49.350;20.898;2023-08-07T10:06:49;1999.90;;;866.65;;
36653;SDS011;22650;49.350;20.898;2023-08-07T10:09:26;1999.90;;;999.90;;
36653;SDS011;22650;49.350;20.898;2023-08-07T10:12:00;1999.90;;;604.08;;
36653;SDS011;22650;49.350;20.898;2023-08-07T10:14:35;1999.90;;;999.90;;
36653;SDS011;22650;49.350;20.898;2023-08-07T10:17:09;1999.90;;;999.90;;
36653;SDS011;22650;49.350;20.898;2023-08-07T10:19:43;1999.90;;;966.50;;
36653;SDS011;22650;49.350;20.898;2023-08-07T10:22:17;1999.90;;;839.97;;
36653;SDS011;22650;49.350;20.898;2023-08-07T10:24:54;1999.90;;;970.80;;
36653;SDS011;22650;49.350;20.898;2023-08-07T10:27:33;1999.90;;;865.58;;
36653;SDS011;22650;49.350;20.898;2023-08-07T10:30:10;1999.90;;;999.90;;
36653;SDS011;22650;49.350;20.898;2023-08-07T10:32:47;1999.90;;;999.90;;
36653;SDS011;22650;49.350;20.898;2023-08-07T10:35:25;1999.90;;;999.90;;
36653;SDS011;22650;49.350;20.898;2023-08-07T10:38:07;1999.90;;;999.90;;
36653;SDS011;22650;49.350;20.898;2023-08-07T10:41:02;1999.90;;;999.90;;
36653;SDS011;22650;49.350;20.898;2023-08-07T10:43:41;1999.90;;;999.90;;
36653;SDS011;22650;49.350;20.898;2023-08-07T10:46:16;1999.90;;;999.90;;
36653;SDS011;22650;49.350;20.898;2023-08-07T10:48:56;1999.90;;;999.90;;
36653;SDS011;22650;49.350;20.898;2023-08-07T10:51:30;1999.90;;;999.90;;
36653;SDS011;22650;49.350;20.898;2023-08-07T10:54:04;1999.90;;;999.90;;
36653;SDS011;22650;49.350;20.898;2023-08-07T10:56:39;1999.90;;;999.90;;
36653;SDS011;22650;49.350;20.898;2023-08-07T10:59:14;1999.90;;;999.90;;
36653;SDS011;22650;49.350;20.898;2023-08-07T11:01:50;1999.90;;;999.90;;
36653;SDS011;22650;49.350;20.898;2023-08-07T11:04:27;1999.90;;;999.90;;
36653;SDS011;22650;49.350;20.898;2023-08-07T11:07:02;1999.90;;;999.90;;
36653;SDS011;22650;49.350;20.898;2023-08-07T11:09:36;1999.90;;;999.90;;
36653;SDS011;22650;49.350;20.898;2023-08-07T11:12:12;1999.90;;;999.90;;
36653;SDS011;22650;49.350;20.898;2023-08-07T11:14:46;1999.90;;;784.80;;
36653;SDS011;22650;49.350;20.898;2023-08-07T11:17:20;1904.20;;;695.00;;
36653;SDS011;22650;49.350;20.898;2023-08-07T11:19:58;1999.90;;;875.58;;
36653;SDS011;22650;49.350;20.898;2023-08-07T11:22:32;1508.97;;;591.17;;
36653;SDS011;22650;49.350;20.898;2023-08-07T11:25:07;1999.90;;;864.05;;
36653;SDS011;22650;49.350;20.898;2023-08-07T11:27:47;1746.95;;;673.50;;
36653;SDS011;22650;49.350;20.898;2023-08-07T11:30:21;1555.93;;;599.55;;
36653;SDS011;22650;49.350;20.898;2023-08-07T11:32:55;1488.95;;;561.97;;
36653;SDS011;22650;49.350;20.898;2023-08-07T11:35:29;1149.05;;;439.60;;
36653;SDS011;22650;49.350;20.898;2023-08-07T11:38:04;811.90;;;306.95;;
36653;SDS011;22650;49.350;20.898;2023-08-07T11:40:38;922.42;;;335.60;;
36653;SDS011;22650;49.350;20.898;2023-08-07T11:43:13;1366.10;;;534.80;;
36653;SDS011;22650;49.350;20.898;2023-08-07T11:45:48;1044.50;;;385.70;;
36653;SDS011;22650;49.350;20.898;2023-08-07T11:48:24;1216.80;;;472.45;;
36653;SDS011;22650;49.350;20.898;2023-08-07T11:50:59;761.15;;;285.08;;
36653;SDS011;22650;49.350;20.898;2023-08-07T11:53:35;1999.90;;;877.88;;
36653;SDS011;22650;49.350;20.898;2023-08-07T11:56:10;1401.20;;;565.47;;
36653;SDS011;22650;49.350;20.898;2023-08-07T11:58:48;1674.30;;;647.75;;
36653;SDS011;22650;49.350;20.898;2023-08-07T12:01:26;1493.30;;;580.92;;
36653;SDS011;22650;49.350;20.898;2023-08-07T12:04:08;1176.32;;;457.30;;
36653;SDS011;22650;49.350;20.898;2023-08-07T12:06:52;1999.90;;;999.90;;
36653;SDS011;22650;49.350;20.898;2023-08-07T12:09:28;1592.63;;;671.28;;
36653;SDS011;22650;49.350;20.898;2023-08-07T12:12:04;1999.90;;;999.90;;
36653;SDS011;22650;49.350;20.898;2023-08-07T12:14:41;1999.90;;;999.90;;
36653;SDS011;22650;49.350;20.898;2023-08-07T12:17:16;1999.90;;;999.90;;
36653;SDS011;22650;49.350;20.898;2023-08-07T12:19:50;1999.90;;;999.90;;
36653;SDS011;22650;49.350;20.898;2023-08-07T12:22:24;1999.90;;;950.45;;
36653;SDS011;22650;49.350;20.898;2023-08-07T12:25:01;1999.90;;;696.45;;
36653;SDS011;22650;49.350;20.898;2023-08-07T12:27:35;1999.90;;;999.90;;
36653;SDS011;22650;49.350;20.898;2023-08-07T12:30:13;1999.90;;;999.90;;
36653;SDS011;22650;49.350;20.898;2023-08-07T12:32:47;1999.90;;;999.90;;
36653;SDS011;22650;49.350;20.898;2023-08-07T12:35:21;1999.90;;;936.10;;
36653;SDS011;22650;49.350;20.898;2023-08-07T12:37:57;1999.90;;;905.40;;
36653;SDS011;22650;49.350;20.898;2023-08-07T12:40:31;1999.90;;;999.90;;
36653;SDS011;22650;49.350;20.898;2023-08-07T12:43:08;1999.90;;;999.90;;
36653;SDS011;22650;49.350;20.898;2023-08-07T12:45:43;1999.90;;;999.90;;
36653;SDS011;22650;49.350;20.898;2023-08-07T12:48:20;1999.90;;;899.22;;
36653;SDS011;22650;49.350;20.898;2023-08-07T12:50:54;1999.90;;;999.90;;
36653;SDS011;22650;49.350;20.898;2023-08-07T12:53:28;1999.90;;;999.90;;
36653;SDS011;22650;49.350;20.898;2023-08-07T12:56:03;1999.90;;;999.90;;
36653;SDS011;22650;49.350;20.898;2023-08-07T12:58:38;1999.90;;;999.90;;
36653;SDS011;22650;49.350;20.898;2023-08-07T13:01:15;1999.90;;;999.90;;
36653;SDS011;22650;49.350;20.898;2023-08-07T13:03:49;1999.90;;;999.90;;
36653;SDS011;22650;49.350;20.898;2023-08-07T13:06:23;1999.90;;;999.90;;
36653;SDS011;22650;49.350;20.898;2023-08-07T13:08:57;1999.90;;;999.90;;
36653;SDS011;22650;49.350;20.898;2023-08-07T13:11:32;1999.90;;;999.90;;
36653;SDS011;22650;49.350;20.898;2023-08-07T13:14:06;1999.90;;;999.90;;
36653;SDS011;22650;49.350;20.898;2023-08-07T13:16:41;1999.90;;;999.90;;
36653;SDS011;22650;49.350;20.898;2023-08-07T13:19:16;1999.90;;;999.90;;
36653;SDS011;22650;49.350;20.898;2023-08-07T13:21:50;1999.90;;;999.90;;
36653;SDS011;22650;49.350;20.898;2023-08-07T13:24:24;1999.90;;;999.90;;
36653;SDS011;22650;49.350;20.898;2023-08-07T13:26:58;1999.90;;;999.90;;
36653;SDS011;22650;49.350;20.898;2023-08-07T13:29:32;1999.90;;;999.90;;
36653;SDS011;22650;49.350;20.898;2023-08-07T13:32:08;1999.90;;;999.90;;
36653;SDS011;22650;49.350;20.898;2023-08-07T13:34:43;1999.90;;;999.90;;
36653;SDS011;22650;49.350;20.898;2023-08-07T13:37:18;1999.90;;;999.90;;
36653;SDS011;22650;49.350;20.898;2023-08-07T13:39:52;1999.90;;;999.90;;
36653;SDS011;22650;49.350;20.898;2023-08-07T13:42:27;1999.90;;;999.90;;
36653;SDS011;22650;49.350;20.898;2023-08-07T13:45:01;1999.90;;;999.90;;
36653;SDS011;22650;49.350;20.898;2023-08-07T13:47:37;1999.90;;;999.90;;
36653;SDS011;22650;49.350;20.898;2023-08-07T13:50:12;1999.90;;;999.90;;
36653;SDS011;22650;49.350;20.898;2023-08-07T13:52:47;1999.90;;;999.90;;
36653;SDS011;22650;49.350;20.898;2023-08-07T13:55:39;1999.90;;;914.95;;
36653;SDS011;22650;49.350;20.898;2023-08-07T13:58:13;1999.90;;;999.90;;
36653;SDS011;22650;49.350;20.898;2023-08-07T14:00:48;1999.90;;;999.90;;
36653;SDS011;22650;49.350;20.898;2023-08-07T14:03:23;1999.90;;;622.33;;
36653;SDS011;22650;49.350;20.898;2023-08-07T14:05:58;1999.90;;;999.90;;
36653;SDS011;22650;49.350;20.898;2023-08-07T14:08:32;1999.90;;;999.90;;
36653;SDS011;22650;49.350;20.898;2023-08-07T14:11:06;1999.90;;;762.17;;
36653;SDS011;22650;49.350;20.898;2023-08-07T14:13:40;1999.90;;;811.30;;
36653;SDS011;22650;49.350;20.898;2023-08-07T14:16:15;1999.90;;;999.90;;
36653;SDS011;22650;49.350;20.898;2023-08-07T14:18:51;1999.90;;;886.78;;
36653;SDS011;22650;49.350;20.898;2023-08-07T14:21:25;1999.90;;;999.90;;